Time;durP1;ratioP1;P1;durP2;ratioP2;P2;SDS_P1;SDS_P2;PMS_P1;PMS_P2;Temp;Humidity;BMP_temperature;BMP_pressure;BME280_temperature;BME280_humidity;BME280_pressure;Samples;Min_cycle;Max_cycle;Signal;HPM_P1;HPM_P2
2022/08/20 00:00:52;;;;;;;36.23;32.10;;;;;;;17.51;96.40;101350.16;5030980;28;20609;-84
2022/08/20 00:03:44;;;;;;;37.73;33.67;;;;;;;17.55;96.53;101348.44;5039579;28;20214;-85
2022/08/20 00:06:15;;;;;;;37.30;32.13;;;;;;;17.56;96.95;101351.03;5007622;28;20659;-84
2022/08/20 00:08:41;;;;;;;37.20;32.23;;;;;;;17.52;96.86;101346.69;5014309;28;20268;-84
2022/08/20 00:11:10;;;;;;;35.97;32.03;;;;;;;17.49;97.33;101349.28;5019415;28;20221;-83
2022/08/20 00:13:44;;;;;;;36.63;32.53;;;;;;;17.47;96.94;101355.31;5031911;28;20549;-83
2022/08/20 00:16:11;;;;;;;38.60;33.27;;;;;;;17.47;96.80;101352.75;5022262;28;20191;-84
2022/08/20 00:18:38;;;;;;;39.17;33.47;;;;;;;17.42;96.80;101359.66;5008331;28;20190;-84
2022/08/20 00:21:07;;;;;;;37.40;32.97;;;;;;;17.45;96.96;101362.25;5000367;28;20639;-84
2022/08/20 00:23:36;;;;;;;39.30;34.80;;;;;;;17.48;97.12;101365.69;5034728;28;20218;-83
2022/08/20 00:26:01;;;;;;;39.20;32.90;;;;;;;17.45;96.91;101372.59;5029132;28;20187;-83
2022/08/20 00:28:27;;;;;;;40.07;35.00;;;;;;;17.46;96.81;101367.41;5017552;28;20241;-82
2022/08/20 00:30:52;;;;;;;41.40;34.73;;;;;;;17.46;96.84;101371.72;5014044;28;20222;-85
2022/08/20 00:33:21;;;;;;;41.13;35.57;;;;;;;17.47;96.95;101370.88;5007778;28;20577;-83
2022/08/20 00:35:51;;;;;;;38.03;33.73;;;;;;;17.45;97.19;101364.84;5013149;28;20190;-85
2022/08/20 00:38:18;;;;;;;43.03;35.53;;;;;;;17.44;97.25;101357.91;5009309;28;20202;-81
2022/08/20 00:40:51;;;;;;;39.70;34.97;;;;;;;17.41;97.62;101351.00;5031082;28;20268;-83
2022/08/20 00:43:43;;;;;;;39.97;33.50;;;;;;;17.41;97.76;101353.59;5024910;28;20690;-82
2022/08/20 00:46:16;;;;;;;41.00;33.93;;;;;;;17.41;97.75;101353.59;4998919;28;20194;-84
2022/08/20 00:48:46;;;;;;;40.63;33.87;;;;;;;17.41;97.36;101343.22;5010935;28;20273;-83
2022/08/20 00:51:54;;;;;;;40.67;34.00;;;;;;;17.42;97.85;101349.28;5015752;28;20715;-85
2022/08/20 00:54:37;;;;;;;36.43;32.43;;;;;;;17.42;97.74;101350.16;4951994;28;20195;-84
2022/08/20 00:57:28;;;;;;;44.17;34.77;;;;;;;17.50;97.66;101350.16;5000926;28;20218;-84
2022/08/20 00:59:56;;;;;;;40.37;35.00;;;;;;;17.52;97.75;101354.47;5025668;28;20231;-86
2022/08/20 01:02:24;;;;;;;45.37;37.43;;;;;;;17.57;97.83;101357.03;4992870;28;20540;-81
2022/08/20 01:04:53;;;;;;;43.53;36.23;;;;;;;17.61;98.32;101359.66;5030502;28;20575;-83
2022/08/20 01:07:23;;;;;;;38.90;31.80;;;;;;;17.62;98.26;101356.19;5027308;28;20190;-83
2022/08/20 01:09:49;;;;;;;45.60;37.20;;;;;;;17.64;98.07;101361.38;5025636;28;20268;-82
2022/08/20 01:12:15;;;;;;;41.20;35.20;;;;;;;17.68;98.23;101363.94;5018480;28;20210;-81
2022/08/20 01:14:45;;;;;;;44.23;35.53;;;;;;;17.72;98.19;101372.56;5014541;28;20191;-84
2022/08/20 01:17:16;;;;;;;45.27;37.13;;;;;;;17.74;98.34;101370.84;5032586;28;20722;-84
2022/08/20 01:20:09;;;;;;;48.30;40.27;;;;;;;17.77;98.31;101371.69;5002170;28;20190;-82
2022/08/20 01:25:56;;;;;;;45.70;38.73;;;;;;;17.84;98.54;101368.25;5003938;28;20198;-84
2022/08/20 01:28:43;;;;;;;53.43;42.37;;;;;;;17.90;98.64;101368.22;4981861;28;20312;-84
2022/08/20 01:31:12;;;;;;;53.57;42.27;;;;;;;17.94;99.00;101366.50;4996708;28;20280;-82
2022/08/20 01:33:38;;;;;;;49.80;40.87;;;;;;;17.94;99.33;101361.31;5005753;28;20748;-81
2022/08/20 01:36:05;;;;;;;50.27;42.10;;;;;;;17.96;99.34;101375.16;5009541;28;20178;-82
2022/08/20 01:38:31;;;;;;;48.40;40.37;;;;;;;17.96;99.58;101380.31;4999513;28;20225;-82
2022/08/20 01:41:24;;;;;;;51.70;42.27;;;;;;;17.98;99.69;101382.03;4998829;28;20704;-85
2022/08/20 01:43:55;;;;;;;55.73;44.10;;;;;;;18.01;99.75;101379.44;5017541;28;20206;-83
2022/08/20 01:46:28;;;;;;;52.93;42.43;;;;;;;18.02;99.96;101388.06;5010859;28;20186;-86
2022/08/20 01:48:55;;;;;;;56.60;43.07;;;;;;;18.02;100.00;101390.66;4990191;28;20183;-88
2022/08/20 01:51:25;;;;;;;51.83;42.50;;;;;;;18.03;100.00;101403.63;5011355;28;20257;-85
2022/08/20 01:53:53;;;;;;;54.17;42.57;;;;;;;18.06;100.00;101392.41;4994118;28;20198;-83
2022/08/20 01:56:24;;;;;;;54.60;42.70;;;;;;;18.06;100.00;101395.81;4992378;28;20194;-88
2022/08/20 01:58:53;;;;;;;49.33;39.63;;;;;;;18.07;99.84;101392.41;5004371;28;20222;-86
2022/08/20 02:01:31;;;;;;;49.23;38.87;;;;;;;18.06;99.72;101390.66;5015254;28;20308;-83
2022/08/20 02:03:58;;;;;;;46.27;38.20;;;;;;;18.04;99.87;101389.78;5013130;28;20194;-83
2022/08/20 02:06:26;;;;;;;48.00;36.83;;;;;;;18.07;99.63;101391.53;4994717;28;20198;-87
2022/08/20 02:08:55;;;;;;;42.87;37.10;;;;;;;18.08;99.19;101391.53;5000904;28;20196;-83
2022/08/20 02:11:22;;;;;;;44.30;36.00;;;;;;;18.08;99.32;101382.88;5000084;28;20214;-85
2022/08/20 02:13:51;;;;;;;43.57;35.10;;;;;;;18.11;98.83;101388.06;5004867;28;20249;-86
2022/08/20 02:16:19;;;;;;;43.70;34.03;;;;;;;18.09;98.75;101379.41;5011317;28;20225;-84
2022/08/20 02:18:46;;;;;;;43.97;34.67;;;;;;;18.08;98.86;101386.34;5006833;28;20194;-83
2022/08/20 02:21:11;;;;;;;41.93;34.37;;;;;;;18.09;99.12;101384.59;5033795;28;20621;-83
2022/08/20 02:23:37;;;;;;;39.37;32.93;;;;;;;18.06;99.22;101390.66;5006986;28;20262;-86
2022/08/20 02:26:06;;;;;;;43.07;33.93;;;;;;;18.06;99.05;101379.44;5021502;28;20190;-84
2022/08/20 02:28:31;;;;;;;38.13;31.40;;;;;;;18.10;98.94;101389.78;4993424;28;20191;-84
2022/08/20 02:31:01;;;;;;;44.27;34.57;;;;;;;18.13;98.76;101401.88;5022261;28;20305;-84
2022/08/20 02:33:27;;;;;;;47.57;34.93;;;;;;;18.08;98.99;101395.84;5034415;28;20217;-84
2022/08/20 02:35:55;;;;;;;40.10;33.60;;;;;;;18.08;98.95;101393.25;4999123;28;20187;-82
2022/08/20 02:38:20;;;;;;;42.13;34.73;;;;;;;18.07;98.45;101384.63;5011675;28;20256;-82
2022/08/20 02:40:47;;;;;;;40.53;33.80;;;;;;;18.08;98.53;101391.53;5029933;28;20202;-85
2022/08/20 02:43:14;;;;;;;43.53;34.27;;;;;;;18.08;98.31;101391.53;4998310;28;20237;-83
2022/08/20 02:45:42;;;;;;;42.90;36.63;;;;;;;18.05;98.45;101385.50;4997087;28;20201;-84
2022/08/20 02:48:19;;;;;;;40.90;35.80;;;;;;;18.05;98.43;101383.75;5030988;28;20281;-82
2022/08/20 02:50:47;;;;;;;43.13;35.40;;;;;;;18.07;98.18;101382.03;5036708;28;20339;-83
2022/08/20 02:53:14;;;;;;;42.83;35.40;;;;;;;18.03;98.93;101382.91;5010317;28;20197;-82
2022/08/20 02:55:43;;;;;;;46.00;36.00;;;;;;;18.04;98.67;101388.91;5021356;28;20183;-82
2022/08/20 02:58:09;;;;;;;43.87;36.37;;;;;;;18.04;98.63;101383.75;5003283;28;20936;-82
2022/08/20 03:00:34;;;;;;;41.93;35.17;;;;;;;18.05;98.51;101388.09;5001651;28;20711;-83
2022/08/20 03:03:01;;;;;;;41.53;33.93;;;;;;;18.04;99.06;101391.50;5016766;28;20190;-87
2022/08/20 03:05:30;;;;;;;38.17;32.23;;;;;;;18.08;98.44;101382.88;5005867;28;20264;-83
2022/08/20 03:07:55;;;;;;;36.57;31.37;;;;;;;18.11;97.99;101382.88;5013835;28;20198;-84
2022/08/20 03:10:24;;;;;;;39.40;34.20;;;;;;;18.07;98.32;101376.84;5016222;28;20217;-82
2022/08/20 03:12:51;;;;;;;42.63;33.90;;;;;;;18.08;98.28;101375.97;5015989;28;20228;-82
2022/08/20 03:15:17;;;;;;;43.53;35.20;;;;;;;18.11;98.24;101377.69;5008177;28;20245;-82
2022/08/20 03:17:42;;;;;;;40.03;34.30;;;;;;;18.08;98.35;101377.69;4990976;28;20644;-83
2022/08/20 03:20:09;;;;;;;40.23;32.90;;;;;;;18.06;98.65;101385.47;5004634;28;20261;-84
2022/08/20 03:22:35;;;;;;;40.60;33.60;;;;;;;18.06;98.26;101390.66;5021659;28;20213;-82
2022/08/20 03:25:00;;;;;;;40.83;34.60;;;;;;;18.06;98.56;101387.22;5032352;28;20665;-84
2022/08/20 03:27:26;;;;;;;43.10;34.00;;;;;;;18.04;98.75;101392.38;5006863;28;20227;-84
2022/08/20 03:29:51;;;;;;;44.67;34.73;;;;;;;18.03;99.04;101403.63;5028009;28;20286;-87
2022/08/20 03:32:17;;;;;;;45.63;34.07;;;;;;;18.03;98.82;101400.16;5003913;28;20221;-84
2022/08/20 03:34:42;;;;;;;44.73;35.67;;;;;;;18.01;98.82;101397.56;5016208;28;20190;-85
2022/08/20 03:37:10;;;;;;;39.07;32.77;;;;;;;18.01;98.50;101402.75;4999109;28;20282;-83
2022/08/20 03:39:36;;;;;;;41.73;34.00;;;;;;;18.01;98.57;101405.34;5014390;28;20214;-84
2022/08/20 03:42:02;;;;;;;36.60;31.40;;;;;;;18.03;98.01;101407.94;5016289;28;20211;-84
2022/08/20 03:44:27;;;;;;;40.00;31.60;;;;;;;18.04;98.15;101407.94;4997544;28;20191;-86
2022/08/20 03:46:53;;;;;;;38.10;31.60;;;;;;;18.06;97.99;101413.13;5013959;28;20274;-84
2022/08/20 03:49:18;;;;;;;35.23;30.83;;;;;;;18.05;98.06;101401.88;4997762;28;20194;-85
2022/08/20 03:51:44;;;;;;;38.73;30.63;;;;;;;18.05;98.39;101407.06;5004381;28;20224;-83
2022/08/20 03:54:09;;;;;;;36.00;30.73;;;;;;;18.06;97.90;101407.94;5007693;28;20199;-82
2022/08/20 03:56:35;;;;;;;34.23;29.47;;;;;;;18.04;98.13;101407.94;5012130;28;20194;-83
2022/08/20 03:59:00;;;;;;;35.30;29.30;;;;;;;18.01;98.48;101413.13;5019225;28;20263;-84
2022/08/20 04:01:26;;;;;;;37.27;30.73;;;;;;;17.98;98.68;101410.56;4993153;28;20211;-84
2022/08/20 04:03:51;;;;;;;34.40;29.83;;;;;;;18.01;98.83;101422.66;5017286;28;20187;-84
2022/08/20 04:06:17;;;;;;;32.87;28.43;;;;;;;18.00;98.72;101423.53;5008075;28;20213;-82
2022/08/20 04:08:42;;;;;;;32.83;28.77;;;;;;;18.02;98.75;101419.19;5021900;28;20277;-84
2022/08/20 04:11:08;;;;;;;34.73;29.47;;;;;;;18.01;98.75;101418.31;5012037;28;20219;-85
2022/08/20 04:13:34;;;;;;;33.53;28.43;;;;;;;18.02;98.80;101416.59;5009167;28;20204;-84
2022/08/20 04:16:06;;;;;;;34.30;28.00;;;;;;;18.03;98.29;101410.53;4997212;28;20186;-83
2022/08/20 04:18:33;;;;;;;33.40;28.67;;;;;;;18.00;98.39;101421.78;4996211;28;20194;-83
2022/08/20 04:20:58;;;;;;;31.23;27.67;;;;;;;17.99;98.28;101417.47;5003761;28;20203;-82
2022/08/20 04:23:23;;;;;;;32.27;28.00;;;;;;;17.97;98.63;101419.16;5006233;28;20689;-80
2022/08/20 04:25:49;;;;;;;31.20;27.80;;;;;;;17.95;98.42;101417.44;5004053;28;20187;-83
2022/08/20 04:28:25;;;;;;;31.27;26.63;;;;;;;17.95;98.38;101433.88;5023794;28;20186;-83
2022/08/20 04:30:53;;;;;;;33.07;26.67;;;;;;;17.94;98.36;101428.69;5012203;28;20217;-82
2022/08/20 04:33:20;;;;;;;31.93;26.60;;;;;;;17.97;98.06;101431.28;5004902;28;20195;-82
2022/08/20 04:35:46;;;;;;;30.43;25.20;;;;;;;17.97;98.02;101431.28;5001739;28;20190;-82
2022/08/20 04:38:16;;;;;;;30.33;25.63;;;;;;;18.00;97.53;101432.13;5028022;28;20267;-81
2022/08/20 04:40:56;;;;;;;31.07;25.57;;;;;;;18.00;97.69;101432.13;5011928;28;20208;-82
2022/08/20 04:43:33;;;;;;;28.13;25.13;;;;;;;18.01;97.42;101435.59;5010924;28;20194;-82
2022/08/20 04:46:02;;;;;;;26.10;22.73;;;;;;;18.06;97.36;101432.13;5024488;28;20182;-85
2022/08/20 04:48:28;;;;;;;24.93;21.87;;;;;;;18.07;96.63;101431.28;5012135;28;20187;-82
2022/08/20 04:50:55;;;;;;;25.97;21.63;;;;;;;18.08;96.90;101439.91;5030093;28;20696;-85
2022/08/20 04:53:24;;;;;;;23.60;21.17;;;;;;;18.13;96.67;101433.84;5021314;28;20201;-84
2022/08/20 04:55:51;;;;;;;23.40;20.97;;;;;;;18.15;96.63;101437.28;5019905;28;20206;-81
2022/08/20 04:58:21;;;;;;;25.57;22.70;;;;;;;18.20;97.38;101440.72;5010267;28;20202;-82
2022/08/20 05:00:49;;;;;;;28.43;25.40;;;;;;;18.23;96.84;101440.75;5001790;28;20218;-83
2022/08/20 05:03:16;;;;;;;29.70;25.17;;;;;;;18.23;97.17;101442.50;5014810;28;20231;-81
2022/08/20 05:05:43;;;;;;;26.43;23.57;;;;;;;18.23;97.48;101435.56;5022579;28;20238;-81
2022/08/20 05:08:11;;;;;;;29.07;25.30;;;;;;;18.26;97.79;101439.88;4994324;28;20195;-83
2022/08/20 05:10:38;;;;;;;25.93;23.17;;;;;;;18.28;97.72;101438.16;5012516;28;20887;-81
2022/08/20 05:13:06;;;;;;;24.53;22.03;;;;;;;18.29;97.38;101445.91;5010864;28;20190;-83
2022/08/20 05:15:31;;;;;;;24.33;21.20;;;;;;;18.30;97.45;101444.19;5011150;28;20194;-82
2022/08/20 05:18:04;;;;;;;22.17;19.77;;;;;;;18.31;97.33;101430.34;5027007;28;20191;-82
2022/08/20 05:20:32;;;;;;;22.80;19.83;;;;;;;18.37;97.02;101440.75;5007965;28;20206;-81
2022/08/20 05:22:59;;;;;;;23.10;19.23;;;;;;;18.40;96.99;101436.41;5021419;28;20249;-81
2022/08/20 05:25:28;;;;;;;22.43;19.83;;;;;;;18.42;97.27;101439.00;5015972;28;20194;-82
2022/08/20 05:28:02;;;;;;;22.27;18.60;;;;;;;18.49;97.08;101438.09;5011503;28;20206;-82
2022/08/20 05:30:32;;;;;;;19.63;16.93;;;;;;;18.53;96.94;101438.09;5022516;28;20681;-83
2022/08/20 05:33:03;;;;;;;18.27;16.33;;;;;;;18.58;96.80;101438.97;5020630;28;20182;-81
2022/08/20 05:35:33;;;;;;;18.90;16.97;;;;;;;18.63;96.35;101438.91;5025628;28;20229;-82
2022/08/20 05:38:00;;;;;;;20.47;16.67;;;;;;;18.67;96.60;101444.13;5001452;28;20195;-83
2022/08/20 05:40:26;;;;;;;21.63;17.50;;;;;;;18.72;96.31;101444.06;5017678;28;20256;-85
2022/08/20 05:42:52;;;;;;;19.97;17.73;;;;;;;18.75;96.32;101444.91;5015592;28;20665;-82
2022/08/20 05:45:19;;;;;;;19.90;16.20;;;;;;;18.81;96.27;101452.69;4991853;28;20278;-82
2022/08/20 05:47:47;;;;;;;21.80;16.13;;;;;;;18.86;96.02;101447.47;5010368;28;20194;-82
2022/08/20 05:50:13;;;;;;;21.97;16.63;;;;;;;18.89;95.90;101450.91;5027170;28;20265;-83
2022/08/20 05:52:39;;;;;;;19.90;15.47;;;;;;;18.96;95.71;101452.63;4995809;28;20189;-82
2022/08/20 05:55:07;;;;;;;22.97;15.70;;;;;;;19.04;95.73;101442.19;5025008;28;20253;-81
2022/08/20 05:57:33;;;;;;;18.90;15.90;;;;;;;19.14;95.12;101444.75;5007734;28;20187;-82
2022/08/20 06:00:01;;;;;;;17.90;14.73;;;;;;;19.23;94.74;101444.72;5027084;28;20221;-80
2022/08/20 06:05:22;;;;;;;18.90;14.70;;;;;;;19.44;94.08;101451.50;5028739;28;20191;-82
2022/08/20 06:07:52;;;;;;;17.13;15.40;;;;;;;19.49;94.32;101442.78;5010169;28;20281;-81
2022/08/20 06:10:17;;;;;;;18.80;15.93;;;;;;;19.53;93.49;101441.91;5019645;28;20244;-84
2022/08/20 06:12:44;;;;;;;17.67;15.00;;;;;;;19.64;93.04;101449.63;5030867;28;20190;-84
2022/08/20 06:15:11;;;;;;;18.00;15.20;;;;;;;19.75;92.70;101448.66;5033474;28;20217;-85
2022/08/20 06:17:37;;;;;;;16.67;14.97;;;;;;;19.83;92.74;101443.38;4983890;28;20191;-82
2022/08/20 06:20:06;;;;;;;21.27;15.90;;;;;;;19.90;92.20;101448.50;4986663;28;20978;-83
2022/08/20 06:22:32;;;;;;;18.00;15.07;;;;;;;19.97;92.82;101446.72;4996284;28;20183;-83
2022/08/20 06:24:59;;;;;;;19.43;15.97;;;;;;;20.01;92.62;101446.69;5008958;28;20240;-83
2022/08/20 06:27:25;;;;;;;19.60;15.33;;;;;;;20.00;92.71;101447.56;5006058;28;20212;-83
2022/08/20 06:29:52;;;;;;;21.23;16.17;;;;;;;19.99;92.87;101455.41;5014708;28;20215;-83
2022/08/20 06:32:18;;;;;;;18.67;14.83;;;;;;;20.00;93.10;101451.91;5028351;28;20867;-83
2022/08/20 06:34:44;;;;;;;18.50;15.87;;;;;;;20.03;92.81;101457.09;5007177;28;20189;-82
2022/08/20 06:37:15;;;;;;;18.40;15.30;;;;;;;20.07;93.02;101462.25;5029012;28;20846;-84
2022/08/20 06:39:41;;;;;;;18.83;15.63;;;;;;;20.09;92.73;101454.47;4994649;28;20198;-83
2022/08/20 06:42:07;;;;;;;20.97;15.90;;;;;;;20.19;92.13;101456.09;5004069;28;20195;-84
2022/08/20 06:44:32;;;;;;;19.63;15.27;;;;;;;20.22;91.79;101451.72;4996376;28;20186;-85
2022/08/20 06:47:03;;;;;;;17.50;14.20;;;;;;;20.36;91.67;101456.78;5021276;28;20574;-84
2022/08/20 06:49:30;;;;;;;17.47;14.77;;;;;;;20.39;91.34;101457.59;5014669;28;20198;-82
2022/08/20 06:51:56;;;;;;;18.07;15.93;;;;;;;20.40;91.56;101469.72;4996997;28;20211;-85
2022/08/20 06:54:21;;;;;;;17.53;14.60;;;;;;;20.41;91.58;101465.41;5003707;28;20187;-83
2022/08/20 06:56:47;;;;;;;18.20;15.13;;;;;;;20.41;90.74;101468.84;5025660;28;20214;-83
2022/08/20 06:59:13;;;;;;;16.73;14.07;;;;;;;20.47;90.94;101465.34;5007067;28;20198;-82
2022/08/20 07:01:39;;;;;;;16.47;13.67;;;;;;;20.48;90.92;101467.03;5006974;28;20276;-82
2022/08/20 07:04:07;;;;;;;16.30;13.90;;;;;;;20.56;90.87;101453.09;4998465;28;20229;-82
2022/08/20 07:06:32;;;;;;;18.60;15.30;;;;;;;20.57;90.91;101467.81;4993483;28;20190;-81
2022/08/20 07:09:00;;;;;;;18.83;15.67;;;;;;;20.59;90.81;101466.06;5006140;28;20193;-83
2022/08/20 07:11:26;;;;;;;18.40;15.53;;;;;;;20.62;91.38;101473.84;4995936;28;20211;-82
2022/08/20 07:13:55;;;;;;;16.67;14.47;;;;;;;20.72;90.83;101478.03;5020971;28;20217;-83
2022/08/20 07:16:20;;;;;;;21.83;15.57;;;;;;;20.79;89.84;101481.44;5011388;28;20198;-83
2022/08/20 07:18:49;;;;;;;21.23;14.97;;;;;;;20.85;89.96;101479.63;5000436;28;20577;-83
2022/08/20 07:21:17;;;;;;;16.30;14.33;;;;;;;20.91;89.72;101476.97;5014714;28;20698;-82
2022/08/20 07:23:45;;;;;;;16.33;14.40;;;;;;;21.01;89.48;101483.78;4989558;28;20273;-81
2022/08/20 07:26:11;;;;;;;19.53;14.83;;;;;;;21.11;88.70;101484.53;5006049;28;20657;-82
2022/08/20 07:28:40;;;;;;;17.13;14.47;;;;;;;21.20;88.02;101484.41;5003114;28;20190;-82
2022/08/20 07:33:50;;;;;;;14.83;12.27;;;;;;;21.59;85.29;101476.00;5014200;28;20225;-84
2022/08/20 07:36:16;;;;;;;14.27;12.70;;;;;;;21.74;84.77;101481.03;4998671;28;20179;-86
2022/08/20 07:38:45;;;;;;;16.13;12.67;;;;;;;21.84;84.16;101487.81;5005855;28;20668;-84
2022/08/20 07:41:15;;;;;;;13.93;12.33;;;;;;;21.83;83.83;101486.09;5006576;28;20417;-82
2022/08/20 07:43:48;;;;;;;14.60;11.83;;;;;;;21.98;82.86;101488.47;5010013;28;20199;-83
2022/08/20 07:46:20;;;;;;;14.07;12.10;;;;;;;22.05;83.32;101493.53;5006818;28;20178;-82
2022/08/20 07:48:52;;;;;;;14.53;13.00;;;;;;;22.06;82.50;101484.81;5015155;28;20197;-81
2022/08/20 07:51:21;;;;;;;14.50;11.90;;;;;;;22.25;83.22;101487.97;5006418;28;20284;-83
2022/08/20 07:53:48;;;;;;;12.87;11.60;;;;;;;22.33;82.62;101491.28;5025757;28;20261;-81
2022/08/20 07:56:18;;;;;;;15.50;13.90;;;;;;;22.23;82.04;101491.50;5033743;28;20255;-82
2022/08/20 07:58:48;;;;;;;16.23;12.83;;;;;;;22.41;81.91;101493.78;5026056;28;20210;-83
2022/08/20 08:01:28;;;;;;;16.37;14.00;;;;;;;22.50;81.43;101499.72;5015286;28;20222;-82
2022/08/20 08:03:55;;;;;;;17.55;13.98;;;;;;;22.55;81.07;101494.44;4996462;28;20250;-82
2022/08/20 08:06:23;;;;;;;12.63;11.43;;;;;;;22.75;80.11;101495.72;5005930;28;20671;-82
2022/08/20 08:08:49;;;;;;;14.73;12.00;;;;;;;22.87;79.51;101499.84;5030205;28;20228;-81
2022/08/20 08:11:17;;;;;;;15.07;10.27;;;;;;;22.98;79.89;101495.28;4997848;28;20218;-82
2022/08/20 08:13:43;;;;;;;11.93;10.70;;;;;;;23.01;79.84;101496.06;4995999;28;20191;-82
2022/08/20 08:16:09;;;;;;;12.90;10.30;;;;;;;23.07;78.06;101509.00;4998805;28;20974;-81
2022/08/20 08:18:48;;;;;;;13.73;10.27;;;;;;;23.13;77.62;101502.78;5007533;28;20260;-82
2022/08/20 08:21:15;;;;;;;13.48;9.60;;;;;;;23.11;76.63;101500.19;5014560;28;20285;-83
2022/08/20 08:23:43;;;;;;;13.27;10.32;;;;;;;23.32;77.59;101501.53;5014427;28;20645;-83
2022/08/20 08:26:12;;;;;;;10.57;9.48;;;;;;;23.34;77.60;101503.22;5014098;28;20207;-82
2022/08/20 08:28:38;;;;;;;9.93;9.00;;;;;;;23.15;77.61;101507.09;4995075;28;20594;-83
2022/08/20 08:31:04;;;;;;;9.73;8.73;;;;;;;23.06;78.19;101507.28;5005007;28;20232;-82
2022/08/20 08:33:31;;;;;;;9.80;8.80;;;;;;;23.07;77.66;101503.78;5020602;28;20657;-82
2022/08/20 08:36:09;;;;;;;9.20;8.32;;;;;;;23.16;76.66;101513.19;5010890;28;20332;-82
2022/08/20 08:38:36;;;;;;;9.25;8.35;;;;;;;23.29;75.96;101499.00;5014394;28;20229;-82
2022/08/20 08:41:12;;;;;;;9.13;7.25;;;;;;;23.44;75.23;101498.66;5000187;28;20203;-83
2022/08/20 08:43:37;;;;;;;8.82;6.60;;;;;;;23.78;75.16;101508.28;5032473;28;20198;-81
2022/08/20 08:46:06;;;;;;;10.40;8.15;;;;;;;23.99;73.03;101499.94;5014197;28;20190;-83
2022/08/20 08:48:35;;;;;;;7.70;7.00;;;;;;;24.17;72.82;101494.25;5002682;28;20190;-81
2022/08/20 08:51:06;;;;;;;8.52;7.40;;;;;;;24.15;72.99;101503.91;5017481;28;20365;-83
2022/08/20 08:53:37;;;;;;;7.32;6.43;;;;;;;24.14;72.34;101504.81;5010466;28;20218;-81
2022/08/20 08:56:04;;;;;;;8.60;6.57;;;;;;;24.24;70.96;101505.41;5024679;28;20193;-83
2022/08/20 08:58:32;;;;;;;5.75;5.20;;;;;;;24.57;69.89;101502.75;5014146;28;20183;-85
2022/08/20 09:01:09;;;;;;;6.03;4.47;;;;;;;25.25;67.90;101498.19;5012228;28;20214;-83
2022/08/20 09:03:38;;;;;;;6.60;4.18;;;;;;;25.56;65.97;101493.75;5029672;28;20251;-83
2022/08/20 09:06:05;;;;;;;5.13;3.40;;;;;;;26.37;62.40;101498.91;4994014;28;20186;-82
2022/08/20 09:08:45;;;;;;;5.60;3.97;;;;;;;26.39;61.43;101504.97;4997290;28;20187;-83
2022/08/20 09:11:10;;;;;;;7.85;3.30;;;;;;;26.32;61.54;101501.69;5013232;28;20256;-83
2022/08/20 09:13:36;;;;;;;4.50;2.92;;;;;;;26.26;62.09;101509.81;5012927;28;20178;-82
2022/08/20 09:16:02;;;;;;;4.82;3.28;;;;;;;26.07;61.31;101505.22;5014780;28;20210;-83
2022/08/20 09:18:27;;;;;;;4.35;3.03;;;;;;;25.93;63.16;101510.06;5012269;28;20281;-83
2022/08/20 09:20:53;;;;;;;3.60;2.97;;;;;;;25.80;63.84;101517.47;5000663;28;20210;-84
2022/08/20 09:23:18;;;;;;;3.40;3.10;;;;;;;25.79;62.50;101507.00;5029519;28;20190;-81
2022/08/20 09:25:44;;;;;;;3.83;3.10;;;;;;;25.73;62.93;101509.81;5010817;28;20214;-83
2022/08/20 09:28:09;;;;;;;5.30;2.85;;;;;;;25.48;60.76;101509.75;4998648;28;20198;-84
2022/08/20 09:30:35;;;;;;;4.40;2.50;;;;;;;25.51;58.96;101514.03;5009264;28;20210;-82
2022/08/20 09:33:01;;;;;;;2.95;2.25;;;;;;;25.63;58.82;101511.00;5030097;28;20190;-82
2022/08/20 09:35:27;;;;;;;3.20;2.70;;;;;;;25.48;59.97;101509.75;4996188;28;20211;-83
2022/08/20 09:37:53;;;;;;;6.43;3.10;;;;;;;25.45;60.31;101516.81;4999339;28;20225;-83
2022/08/20 09:40:20;;;;;;;4.97;2.85;;;;;;;25.41;60.17;101505.56;5024373;28;20211;-83
2022/08/20 09:42:46;;;;;;;4.05;3.08;;;;;;;25.37;61.15;101514.44;4999425;28;20765;-84
2022/08/20 09:45:13;;;;;;;5.38;3.03;;;;;;;25.28;61.40;101512.09;5010103;28;20230;-83
2022/08/20 09:47:39;;;;;;;8.35;2.80;;;;;;;25.38;61.19;101510.94;5012400;28;20197;-82
2022/08/20 09:50:08;;;;;;;4.80;2.20;;;;;;;25.35;59.42;101518.00;4996959;28;20233;-82
2022/08/20 09:52:38;;;;;;;6.30;2.70;;;;;;;25.46;59.23;101514.16;5011286;28;20219;-82
2022/08/20 09:55:15;;;;;;;3.22;2.28;;;;;;;25.57;60.66;101512.09;4998253;28;20179;-82
2022/08/20 09:57:41;;;;;;;6.10;3.17;;;;;;;25.49;60.33;101516.69;4996230;28;20213;-82
2022/08/20 10:00:10;;;;;;;4.93;3.22;;;;;;;25.61;60.74;101515.47;5016703;28;20236;-83
2022/08/20 10:02:39;;;;;;;5.65;3.13;;;;;;;25.59;60.64;101514.63;5009021;28;20187;-82
2022/08/20 10:05:05;;;;;;;6.45;3.80;;;;;;;25.61;61.94;101516.34;5015428;28;20202;-82
2022/08/20 10:07:33;;;;;;;5.45;3.15;;;;;;;25.60;61.07;101522.47;5016328;28;20190;-81
2022/08/20 10:09:58;;;;;;;5.43;3.35;;;;;;;25.67;60.76;101523.13;5014360;28;20233;-81
2022/08/20 10:12:24;;;;;;;6.82;3.00;;;;;;;25.82;60.38;101517.38;5014743;28;20210;-80
2022/08/20 10:14:49;;;;;;;4.78;3.17;;;;;;;26.21;57.38;101517.00;5026558;28;20217;-82
2022/08/20 10:17:15;;;;;;;5.15;3.10;;;;;;;26.64;56.36;101514.59;5031045;28;20222;-83
2022/08/20 10:19:40;;;;;;;4.57;3.15;;;;;;;27.00;54.64;101507.13;5013932;28;20210;-82
2022/08/20 10:22:06;;;;;;;4.57;3.10;;;;;;;26.96;54.68;101516.91;5010352;28;20197;-81
2022/08/20 10:24:33;;;;;;;5.15;2.75;;;;;;;27.10;53.06;101516.38;5019200;28;20194;-85
2022/08/20 10:27:00;;;;;;;6.30;2.80;;;;;;;27.26;52.79;101521.03;5025464;28;20183;-83
2022/08/20 10:29:27;;;;;;;6.28;2.70;;;;;;;27.29;51.65;101520.06;4997461;28;20270;-83
2022/08/20 10:31:54;;;;;;;5.20;2.58;;;;;;;27.29;51.62;101517.44;5030372;28;20353;-83
2022/08/20 10:34:20;;;;;;;4.90;2.38;;;;;;;27.63;51.98;101516.06;4981871;28;20230;-83
2022/08/20 10:36:46;;;;;;;6.85;2.90;;;;;;;28.06;50.48;101523.09;5005439;28;20257;-82
2022/08/20 10:39:11;;;;;;;4.70;2.92;;;;;;;28.28;49.09;101519.50;5001188;28;20201;-83
2022/08/20 10:41:37;;;;;;;6.40;2.78;;;;;;;28.73;49.69;101524.59;5001259;28;20613;-82
2022/08/20 10:44:03;;;;;;;5.65;3.17;;;;;;;28.35;49.39;101520.94;5016788;28;20242;-81
2022/08/20 10:46:30;;;;;;;6.30;2.50;;;;;;;28.01;51.21;101515.41;5009381;28;20236;-80
2022/08/20 10:48:55;;;;;;;5.53;2.90;;;;;;;27.84;52.63;101525.78;5021119;28;20195;-82
2022/08/20 10:51:20;;;;;;;5.80;2.53;;;;;;;27.80;51.49;101520.66;4997021;28;20649;-81
2022/08/20 10:53:46;;;;;;;7.22;2.22;;;;;;;28.33;47.32;101517.50;4994584;28;20273;-82
2022/08/20 10:56:12;;;;;;;4.03;2.10;;;;;;;28.87;45.99;101515.13;5001747;28;20198;-81
2022/08/20 10:58:37;;;;;;;4.85;2.40;;;;;;;28.89;47.37;101517.69;4998886;28;20665;-83
2022/08/20 11:01:03;;;;;;;4.00;2.42;;;;;;;28.63;47.98;101515.34;5009971;28;20214;-81
2022/08/20 11:03:33;;;;;;;6.00;2.17;;;;;;;28.69;47.76;101515.94;5008638;28;20218;-84
2022/08/20 11:05:59;;;;;;;6.70;2.33;;;;;;;28.47;48.71;101514.34;4989832;28;20204;-84
2022/08/20 11:08:24;;;;;;;6.00;2.42;;;;;;;28.24;49.84;101515.28;5010491;28;20269;-82
2022/08/20 11:11:05;;;;;;;4.10;2.58;;;;;;;28.20;49.98;101521.63;5005630;28;20226;-85
2022/08/20 11:14:17;;;;;;;7.35;2.42;;;;;;;27.82;51.06;101530.22;4997554;28;20234;-83
2022/08/20 11:16:48;;;;;;;5.72;2.78;;;;;;;27.67;50.44;101535.25;4965177;28;20197;-84
2022/08/20 11:19:32;;;;;;;;;;;;;;;;;;;;;
2022/08/20 11:22:15;;;;;;;10.65;2.83;;;;;;;27.46;51.22;101536.06;5008326;28;20210;-84
2022/08/20 11:25:12;;;;;;;;;;;;;;;;;;;;;
2022/08/20 11:27:56;;;;;;;5.78;2.70;;;;;;;27.88;50.98;101539.66;5016070;28;20198;-85
2022/08/20 11:30:41;;;;;;;6.93;2.83;;;;;;;27.95;48.70;101541.13;4995032;28;20222;-82
2022/08/20 11:36:31;;;;;;;6.30;2.38;;;;;;;28.22;46.11;101532.06;5013589;28;20196;-83